Time;durP1;ratioP1;P1;durP2;ratioP2;P2;SDS_P1;SDS_P2;PMS_P1;PMS_P2;Temp;Humidity;BMP_temperature;BMP_pressure;BME280_temperature;BME280_humidity;BME280_pressure;Samples;Min_cycle;Max_cycle;Signal;HPM_P1;HPM_P2
2022/07/10 00:02:02;;;;;;;1.47;1.37;;;21.40;66.70;;;;;;6204237;28;20264;-65
2022/07/10 00:05:06;;;;;;;1.67;1.57;;;21.30;66.60;;;;;;6195509;28;20226;-65
2022/07/10 00:08:11;;;;;;;1.83;1.63;;;21.20;67.20;;;;;;6204192;28;20245;-65
2022/07/10 00:11:14;;;;;;;2.30;1.70;;;21.10;67.60;;;;;;6204242;28;20237;-65
2022/07/10 00:14:17;;;;;;;2.07;1.87;;;21.00;68.00;;;;;;6203946;28;20289;-65
2022/07/10 00:17:20;;;;;;;1.83;1.73;;;21.00;69.50;;;;;;6204045;28;20202;-67
2022/07/10 00:20:23;;;;;;;2.27;1.70;;;21.00;69.40;;;;;;6204166;28;20236;-66
2022/07/10 00:23:28;;;;;;;1.43;1.33;;;20.90;69.80;;;;;;6204041;28;20210;-66
2022/07/10 00:26:31;;;;;;;4.20;1.63;;;20.90;70.40;;;;;;6203511;28;20683;-66
2022/07/10 00:29:34;;;;;;;1.60;1.50;;;20.90;70.90;;;;;;6204202;28;20690;-66
2022/07/10 00:32:38;;;;;;;3.53;1.60;;;20.90;71.70;;;;;;6203846;28;20240;-66
2022/07/10 00:35:41;;;;;;;1.47;1.37;;;20.90;73.20;;;;;;6203535;28;20287;-66
2022/07/10 00:38:46;;;;;;;1.60;1.50;;;20.90;72.70;;;;;;6203296;28;20313;-66
2022/07/10 00:41:49;;;;;;;1.50;1.40;;;20.90;73.30;;;;;;6203293;28;20235;-66
2022/07/10 00:44:52;;;;;;;2.87;1.37;;;20.90;73.20;;;;;;6203227;28;20574;-66
2022/07/10 00:47:55;;;;;;;1.50;1.40;;;20.90;73.50;;;;;;6202819;28;20226;-67
2022/07/10 00:50:58;;;;;;;1.90;1.70;;;20.90;73.20;;;;;;6204123;28;20226;-66
2022/07/10 00:54:03;;;;;;;1.80;1.70;;;21.00;73.90;;;;;;6204772;28;20229;-66
2022/07/10 00:57:08;;;;;;;1.57;1.47;;;21.00;72.80;;;;;;6203858;28;20222;-66
2022/07/10 01:00:11;;;;;;;2.00;1.80;;;21.10;72.90;;;;;;6166114;28;1112096;-66
2022/07/10 01:03:14;;;;;;;1.60;1.50;;;21.10;72.80;;;;;;6205055;28;20229;-66
2022/07/10 01:06:18;;;;;;;2.17;1.70;;;21.10;73.80;;;;;;6204710;28;20266;-66
2022/07/10 01:09:23;;;;;;;1.60;1.50;;;21.20;73.20;;;;;;6204609;28;20277;-66
2022/07/10 01:12:26;;;;;;;1.93;1.83;;;21.10;73.20;;;;;;6204463;28;20236;-66
2022/07/10 01:15:30;;;;;;;2.20;1.57;;;21.20;73.50;;;;;;6204096;28;20676;-68
2022/07/10 01:18:33;;;;;;;1.63;1.53;;;21.20;73.80;;;;;;6204216;28;20234;-68
2022/07/10 01:21:38;;;;;;;2.60;1.80;;;21.10;74.00;;;;;;6204418;28;20264;-66
2022/07/10 01:24:41;;;;;;;1.87;1.77;;;21.00;74.50;;;;;;6204011;28;20226;-66
2022/07/10 01:27:47;;;;;;;2.07;1.93;;;21.00;74.60;;;;;;6204109;28;20241;-66
2022/07/10 01:30:50;;;;;;;2.27;1.80;;;21.00;75.30;;;;;;6204095;28;20236;-66
2022/07/10 01:33:54;;;;;;;2.40;1.87;;;20.90;75.30;;;;;;6203887;28;20252;-66
2022/07/10 01:36:58;;;;;;;2.20;1.73;;;20.80;75.30;;;;;;6204010;28;20584;-66
2022/07/10 01:40:02;;;;;;;2.50;1.80;;;20.70;76.10;;;;;;6203645;28;20604;-66
2022/07/10 01:43:05;;;;;;;2.23;1.60;;;20.60;77.00;;;;;;6203075;28;20240;-66
2022/07/10 01:46:08;;;;;;;2.07;1.97;;;20.60;77.10;;;;;;6203788;28;20648;-66
2022/07/10 01:49:12;;;;;;;2.53;1.80;;;20.60;77.50;;;;;;6203565;28;20674;-66
2022/07/10 01:52:16;;;;;;;1.70;1.57;;;20.40;78.30;;;;;;6203148;28;20229;-67
2022/07/10 01:55:19;;;;;;;1.40;1.30;;;20.50;78.50;;;;;;6203313;28;20226;-68
2022/07/10 01:58:23;;;;;;;1.50;1.40;;;20.60;78.20;;;;;;6202715;28;20230;-66
2022/07/10 02:01:26;;;;;;;1.90;1.80;;;20.60;78.30;;;;;;6203134;28;20605;-66
2022/07/10 02:04:44;;;;;;;1.80;1.70;;;20.60;78.20;;;;;;6202997;28;20699;-66
2022/07/10 02:07:48;;;;;;;1.90;1.80;;;20.60;78.40;;;;;;6203152;28;20234;-66
2022/07/10 02:10:51;;;;;;;2.00;1.90;;;20.50;78.70;;;;;;6202689;28;20240;-66
2022/07/10 02:13:54;;;;;;;1.60;1.50;;;20.40;79.40;;;;;;6203152;28;20229;-66
2022/07/10 02:16:58;;;;;;;1.60;1.50;;;20.20;80.30;;;;;;6202780;28;20240;-66
2022/07/10 02:20:01;;;;;;;2.43;2.07;;;20.10;80.80;;;;;;6202276;28;20229;-66
2022/07/10 02:23:06;;;;;;;2.23;1.80;;;20.10;81.50;;;;;;6202651;28;20297;-67
2022/07/10 02:26:09;;;;;;;2.43;2.00;;;20.00;83.90;;;;;;6202722;28;20240;-67
2022/07/10 02:29:12;;;;;;;1.83;1.60;;;20.10;84.70;;;;;;6202174;28;20229;-67
2022/07/10 02:32:16;;;;;;;3.43;1.63;;;20.00;85.20;;;;;;6202851;28;20209;-67
2022/07/10 02:35:19;;;;;;;2.10;1.83;;;19.90;85.10;;;;;;6202883;28;20210;-67
2022/07/10 02:38:24;;;;;;;1.70;1.60;;;19.80;86.00;;;;;;6202520;28;20228;-66
2022/07/10 02:41:27;;;;;;;3.13;2.60;;;19.80;87.20;;;;;;6202509;28;20213;-66
2022/07/10 02:44:30;;;;;;;1.93;1.73;;;19.70;87.40;;;;;;6202581;28;20268;-66
2022/07/10 02:47:33;;;;;;;2.30;1.83;;;19.60;87.60;;;;;;6204004;28;20240;-67
2022/07/10 02:50:36;;;;;;;2.23;2.10;;;19.70;87.90;;;;;;6202106;28;20263;-68
2022/07/10 02:53:41;;;;;;;1.80;1.70;;;19.70;88.50;;;;;;6202451;28;20244;-68
2022/07/10 02:56:44;;;;;;;2.30;2.10;;;19.80;88.70;;;;;;6202167;28;20226;-68
2022/07/10 02:59:47;;;;;;;2.30;1.90;;;19.80;89.30;;;;;;6201991;28;20234;-68
2022/07/10 03:02:50;;;;;;;1.70;1.60;;;19.90;88.80;;;;;;6201854;28;20225;-67
2022/07/10 03:05:53;;;;;;;1.80;1.70;;;19.90;88.90;;;;;;6202279;28;20229;-67
2022/07/10 03:08:58;;;;;;;2.23;2.03;;;19.90;89.10;;;;;;6201624;28;20586;-67
2022/07/10 03:12:01;;;;;;;3.17;1.67;;;19.80;88.90;;;;;;6201714;28;20221;-68
2022/07/10 03:15:05;;;;;;;1.80;1.70;;;19.80;89.10;;;;;;6197240;28;20225;-68
2022/07/10 03:18:08;;;;;;;4.07;2.30;;;19.80;89.10;;;;;;6201546;28;20218;-67
2022/07/10 03:21:11;;;;;;;3.07;2.33;;;19.90;88.80;;;;;;6201393;28;20249;-68
2022/07/10 03:24:16;;;;;;;1.70;1.60;;;19.80;89.50;;;;;;6201166;28;20240;-67
2022/07/10 03:27:19;;;;;;;2.00;1.90;;;19.70;89.70;;;;;;6201268;28;20696;-68
2022/07/10 03:30:22;;;;;;;2.20;2.00;;;19.60;90.20;;;;;;6201208;28;20240;-68
2022/07/10 03:33:25;;;;;;;4.10;2.10;;;19.50;90.50;;;;;;6201200;28;20706;-68
2022/07/10 03:36:28;;;;;;;1.97;1.80;;;19.50;90.70;;;;;;6201512;28;20240;-68
2022/07/10 03:39:33;;;;;;;3.90;2.37;;;19.40;91.00;;;;;;6201337;28;20249;-68
2022/07/10 03:42:36;;;;;;;2.10;1.90;;;19.30;91.20;;;;;;6201548;28;20241;-68
2022/07/10 03:45:39;;;;;;;2.23;2.10;;;19.30;91.40;;;;;;6202252;28;20577;-67
2022/07/10 03:48:43;;;;;;;2.00;1.90;;;19.30;91.60;;;;;;6200679;28;20237;-67
2022/07/10 03:51:46;;;;;;;2.23;2.10;;;19.30;92.00;;;;;;6200982;28;20233;-67
2022/07/10 03:54:50;;;;;;;2.63;2.43;;;19.20;92.60;;;;;;6200807;28;20259;-67
2022/07/10 03:57:56;;;;;;;2.43;2.23;;;19.10;93.10;;;;;;6201237;28;20230;-67
2022/07/10 04:00:59;;;;;;;2.47;2.27;;;19.00;93.40;;;;;;6200850;28;20616;-68
2022/07/10 04:04:03;;;;;;;3.00;2.33;;;19.00;93.40;;;;;;6201247;28;20533;-68
2022/07/10 04:07:06;;;;;;;2.13;1.90;;;19.00;94.10;;;;;;6201089;28;20331;-68
2022/07/10 04:10:11;;;;;;;2.70;2.50;;;19.00;94.30;;;;;;6201238;28;20240;-67
2022/07/10 04:13:14;;;;;;;2.93;2.30;;;19.00;94.90;;;;;;6201085;28;20226;-67
2022/07/10 04:16:18;;;;;;;2.53;2.33;;;19.10;95.30;;;;;;6200783;28;20780;-67
2022/07/10 04:19:22;;;;;;;2.60;2.40;;;19.00;96.30;;;;;;6192469;28;20234;-68
2022/07/10 04:22:25;;;;;;;2.90;2.67;;;19.00;96.60;;;;;;6200386;28;20240;-68
2022/07/10 04:25:30;;;;;;;2.33;2.13;;;19.00;96.80;;;;;;6200657;28;20246;-68
2022/07/10 04:28:33;;;;;;;2.87;2.67;;;19.00;97.10;;;;;;6200163;28;20233;-67
2022/07/10 04:31:36;;;;;;;2.50;2.30;;;19.10;97.20;;;;;;6200064;28;20699;-68
2022/07/10 04:34:39;;;;;;;4.13;2.40;;;19.30;96.60;;;;;;6200271;28;20237;-68
2022/07/10 04:37:42;;;;;;;3.80;2.43;;;19.40;96.30;;;;;;6200045;28;20245;-68
2022/07/10 04:40:47;;;;;;;2.40;2.20;;;19.30;96.20;;;;;;6200868;28;20252;-68
2022/07/10 04:43:50;;;;;;;2.40;2.27;;;19.40;96.40;;;;;;6204981;28;20577;-68
2022/07/10 04:46:53;;;;;;;2.87;2.60;;;19.50;96.40;;;;;;6205253;28;20240;-68
2022/07/10 04:49:56;;;;;;;2.43;2.27;;;19.50;96.40;;;;;;6204587;28;20703;-68
2022/07/10 04:53:00;;;;;;;2.90;2.60;;;19.40;96.70;;;;;;6204795;28;20234;-68
2022/07/10 04:56:05;;;;;;;3.03;2.60;;;19.30;96.80;;;;;;6204369;28;20232;-68
2022/07/10 04:59:09;;;;;;;4.70;2.90;;;19.30;96.90;;;;;;6210129;28;20256;-68
2022/07/10 05:02:12;;;;;;;3.00;2.80;;;19.30;97.20;;;;;;6209438;28;20229;-68
2022/07/10 05:05:15;;;;;;;2.43;2.30;;;19.20;97.20;;;;;;6228384;28;20308;-68
2022/07/10 05:08:19;;;;;;;3.50;2.70;;;19.20;97.30;;;;;;6227480;28;20570;-68
2022/07/10 05:11:23;;;;;;;2.87;2.67;;;19.20;97.30;;;;;;6204304;28;20205;-68
2022/07/10 05:14:26;;;;;;;3.57;2.50;;;19.20;97.30;;;;;;6204278;28;20668;-68
2022/07/10 05:17:31;;;;;;;4.93;2.87;;;19.20;97.10;;;;;;6204467;28;20212;-68
2022/07/10 05:20:35;;;;;;;3.60;2.57;;;19.20;97.10;;;;;;6199548;28;20328;-67
2022/07/10 05:23:39;;;;;;;2.63;2.43;;;19.30;97.30;;;;;;6204261;28;20372;-67
2022/07/10 05:26:43;;;;;;;3.60;2.40;;;19.30;97.20;;;;;;6203646;28;20555;-67
2022/07/10 05:29:46;;;;;;;3.00;2.70;;;19.40;97.30;;;;;;6204182;28;20248;-67
2022/07/10 05:32:49;;;;;;;2.93;2.73;;;19.40;97.30;;;;;;6203782;28;20236;-67
2022/07/10 05:35:53;;;;;;;2.20;2.10;;;19.50;97.10;;;;;;6203658;28;20563;-66
2022/07/10 05:38:56;;;;;;;3.10;2.80;;;19.60;97.10;;;;;;6203832;28;20230;-66
2022/07/10 05:42:00;;;;;;;2.53;2.33;;;19.60;97.00;;;;;;6203953;28;20240;-66
2022/07/10 05:45:05;;;;;;;3.63;3.00;;;19.60;97.20;;;;;;6203584;28;20226;-67
2022/07/10 05:48:08;;;;;;;3.30;3.00;;;19.60;97.30;;;;;;6203303;28;20241;-68
2022/07/10 05:51:11;;;;;;;5.67;3.03;;;19.50;97.50;;;;;;6203413;28;20230;-67
2022/07/10 05:54:34;;;;;;;3.40;3.10;;;19.40;97.70;;;;;;6202370;28;20238;-67
2022/07/10 05:57:38;;;;;;;4.10;3.60;;;19.40;97.90;;;;;;6203268;28;20248;-67
2022/07/10 06:00:42;;;;;;;3.60;2.70;;;19.50;97.90;;;;;;6203443;28;20245;-67
2022/07/10 06:03:46;;;;;;;2.97;2.67;;;19.60;98.30;;;;;;6203674;28;20241;-67
2022/07/10 06:06:49;;;;;;;3.37;2.63;;;19.70;97.90;;;;;;6203391;28;20327;-67
2022/07/10 06:09:52;;;;;;;4.03;2.90;;;19.70;98.20;;;;;;6203001;28;20229;-67
2022/07/10 06:12:56;;;;;;;3.17;2.97;;;19.80;97.90;;;;;;6202626;28;20588;-66
2022/07/10 06:16:00;;;;;;;4.53;3.07;;;19.80;98.00;;;;;;6203173;28;20230;-66
2022/07/10 06:19:04;;;;;;;3.10;2.70;;;19.80;98.10;;;;;;6202793;28;20241;-66
2022/07/10 06:25:33;;;;;;;3.60;2.73;;;19.70;99.00;;;;;;6196656;28;20237;-67
2022/07/10 06:28:39;;;;;;;2.60;2.40;;;19.70;99.10;;;;;;6197749;28;20229;-67
2022/07/10 06:31:43;;;;;;;3.60;2.73;;;19.60;99.30;;;;;;6201959;28;20230;-67
2022/07/10 06:34:46;;;;;;;3.57;3.13;;;19.60;98.70;;;;;;6202454;28;20714;-68
2022/07/10 06:37:49;;;;;;;3.37;3.07;;;19.60;99.10;;;;;;6205433;28;20237;-65
2022/07/10 06:40:53;;;;;;;3.33;3.03;;;19.60;99.00;;;;;;6216516;28;20244;-66
2022/07/10 06:44:00;;;;;;;3.73;3.07;;;19.60;99.10;;;;;;6202323;28;20722;-66
2022/07/10 06:50:25;;;;;;;3.53;3.23;;;19.50;99.20;;;;;;6201515;28;20234;-66
2022/07/10 06:53:28;;;;;;;3.30;3.07;;;19.50;99.60;;;;;;6201893;28;20225;-67
2022/07/10 06:56:31;;;;;;;3.60;3.30;;;19.50;99.40;;;;;;6202139;28;20619;-67
2022/07/10 06:59:36;;;;;;;3.03;2.83;;;19.60;99.70;;;;;;6201473;28;20554;-67
2022/07/10 07:02:40;;;;;;;3.20;2.90;;;19.80;99.60;;;;;;6202115;28;20226;-65
2022/07/10 07:05:43;;;;;;;4.10;3.30;;;19.80;99.60;;;;;;6201291;28;20544;-66
2022/07/10 07:08:46;;;;;;;2.63;2.43;;;19.90;99.90;;;;;;6202072;28;20240;-65
2022/07/10 07:11:49;;;;;;;4.77;2.53;;;20.00;99.90;;;;;;6201708;28;20565;-65
2022/07/10 07:14:54;;;;;;;4.80;3.00;;;20.30;99.50;;;;;;6202482;28;20236;-65
2022/07/10 07:18:07;;;;;;;3.23;2.93;;;21.00;98.40;;;;;;6201658;28;20225;-65
2022/07/10 07:24:31;;;;;;;2.47;2.20;;;22.50;95.60;;;;;;6201879;28;20226;-65
2022/07/10 07:27:35;;;;;;;4.20;2.33;;;23.70;93.00;;;;;;6202098;28;20236;-66
2022/07/10 07:30:39;;;;;;;3.60;2.30;;;24.50;91.40;;;;;;6192962;28;20253;-65
2022/07/10 07:33:43;;;;;;;2.90;2.33;;;26.40;87.00;;;;;;6201978;28;20275;-65
2022/07/10 07:36:46;;;;;;;2.67;2.43;;;28.50;77.80;;;;;;6201798;28;20232;-65
2022/07/10 07:39:49;;;;;;;2.70;2.33;;;29.90;70.20;;;;;;6201781;28;20324;-66
2022/07/10 07:42:53;;;;;;;4.47;2.50;;;31.00;64.40;;;;;;6201691;28;20675;-66
2022/07/10 07:45:57;;;;;;;2.30;2.10;;;32.60;58.20;;;;;;6201908;28;20323;-67
2022/07/10 07:49:01;;;;;;;2.45;1.75;;;33.50;53.00;;;;;;6201296;28;20234;-67
2022/07/10 07:52:05;;;;;;;1.30;1.20;;;34.30;50.90;;;;;;6201129;28;20236;-67
2022/07/10 07:55:10;;;;;;;2.20;2.00;;;34.70;46.10;;;;;;6201159;28;20233;-67
2022/07/10 07:58:13;;;;;;;1.60;1.05;;;34.50;46.50;;;;;;6201019;28;20718;-67
2022/07/10 08:01:19;;;;;;;3.38;1.25;;;34.00;45.40;;;;;;6201474;28;20232;-67
2022/07/10 08:04:22;;;;;;;1.42;1.20;;;33.00;46.10;;;;;;6200836;28;20239;-66
2022/07/10 08:07:34;;;;;;;1.42;1.23;;;32.00;47.60;;;;;;6201018;28;20236;-66
2022/07/10 08:10:38;;;;;;;1.30;1.20;;;31.60;48.50;;;;;;6200710;28;20241;-67
2022/07/10 08:13:47;;;;;;;2.08;1.65;;;31.20;49.40;;;;;;6200858;28;20230;-67
2022/07/10 08:16:51;;;;;;;1.60;1.20;;;30.80;49.70;;;;;;6202030;28;20229;-67
2022/07/10 08:19:55;;;;;;;1.23;1.13;;;30.20;50.90;;;;;;6205827;28;20229;-67
2022/07/10 08:22:58;;;;;;;1.58;1.40;;;30.00;52.00;;;;;;6205550;28;20248;-68
2022/07/10 08:26:02;;;;;;;3.45;1.58;;;29.70;52.00;;;;;;6205277;28;20237;-67
2022/07/10 08:29:05;;;;;;;1.60;1.23;;;29.40;53.00;;;;;;6205317;28;20562;-67
2022/07/10 08:32:10;;;;;;;1.70;1.60;;;29.20;53.00;;;;;;6228116;28;20670;-66
2022/07/10 08:35:13;;;;;;;1.60;1.47;;;28.90;53.00;;;;;;6220227;28;20236;-69
2022/07/10 08:38:16;;;;;;;1.80;1.40;;;28.90;52.60;;;;;;6228703;28;20685;-67
2022/07/10 08:41:25;;;;;;;1.47;1.37;;;28.50;52.40;;;;;;6228367;28;20550;-68
2022/07/10 08:44:29;;;;;;;1.23;1.07;;;28.40;53.70;;;;;;6230117;28;20193;-68
2022/07/10 08:47:35;;;;;;;1.30;1.20;;;28.00;54.10;;;;;;6229239;28;20215;-67
2022/07/10 08:50:48;;;;;;;2.00;1.20;;;27.00;56.40;;;;;;6229512;28;20251;-68
2022/07/10 08:53:52;;;;;;;1.60;1.30;;;26.60;59.00;;;;;;6229632;28;20252;-68
2022/07/10 08:56:57;;;;;;;0.90;0.83;;;26.80;59.10;;;;;;6229036;28;20615;-66
2022/07/10 09:00:00;;;;;;;1.80;1.30;;;26.90;59.70;;;;;;6223320;28;20548;-65
2022/07/10 09:03:05;;;;;;;1.43;1.33;;;26.70;61.40;;;;;;6211704;28;20225;-65
2022/07/10 09:06:09;;;;;;;2.10;1.87;;;26.00;66.60;;;;;;6198085;28;20229;-65
2022/07/10 09:09:13;;;;;;;2.47;2.30;;;25.50;69.10;;;;;;6197947;28;20244;-65
2022/07/10 09:12:16;;;;;;;2.27;2.17;;;25.50;69.10;;;;;;6207904;28;20239;-65
2022/07/10 09:15:21;;;;;;;2.50;1.83;;;25.30;70.70;;;;;;6202358;28;20524;-67
2022/07/10 09:18:26;;;;;;;2.40;2.20;;;25.10;71.00;;;;;;6190882;28;20236;-66
2022/07/10 09:21:34;;;;;;;2.10;1.90;;;25.30;70.40;;;;;;6203366;28;20229;-66
2022/07/10 09:24:38;;;;;;;2.50;2.30;;;24.90;71.90;;;;;;6203706;28;20225;-66
2022/07/10 09:27:53;;;;;;;2.23;2.13;;;24.80;70.80;;;;;;6202263;28;20251;-66
2022/07/10 09:30:57;;;;;;;2.13;1.93;;;25.00;71.70;;;;;;6203051;28;20237;-66
2022/07/10 09:34:02;;;;;;;1.77;1.67;;;25.20;70.90;;;;;;6200347;28;20250;-66
2022/07/10 09:37:26;;;;;;;2.23;2.10;;;25.80;69.30;;;;;;6199250;28;20247;-65
2022/07/10 09:40:30;;;;;;;2.00;1.90;;;26.20;68.90;;;;;;6203049;28;20225;-66
2022/07/10 09:43:45;;;;;;;2.03;1.93;;;26.60;67.50;;;;;;6203518;28;20267;-66
2022/07/10 09:46:48;;;;;;;2.73;2.00;;;26.50;67.20;;;;;;6203420;28;20229;-65
2022/07/10 09:49:52;;;;;;;1.93;1.83;;;26.80;65.20;;;;;;6202785;28;20221;-66
2022/07/10 09:52:57;;;;;;;2.23;2.03;;;27.40;63.80;;;;;;6203306;28;20573;-66
2022/07/10 09:56:03;;;;;;;2.00;1.83;;;27.70;61.40;;;;;;6203017;28;20248;-66
2022/07/10 09:59:10;;;;;;;2.40;1.97;;;27.40;60.90;;;;;;6204205;28;20236;-66
2022/07/10 10:02:17;;;;;;;2.27;2.10;;;27.60;58.70;;;;;;6189017;28;20843;-65
2022/07/10 10:05:25;;;;;;;1.70;1.60;;;27.80;58.00;;;;;;6207775;28;20356;-66
2022/07/10 10:08:30;;;;;;;1.60;1.50;;;27.80;58.30;;;;;;6187177;28;20229;-67
2022/07/10 10:11:36;;;;;;;2.37;2.00;;;28.20;57.80;;;;;;6195743;28;20213;-66
2022/07/10 10:14:40;;;;;;;1.70;1.60;;;28.40;57.40;;;;;;6183075;28;20261;-66
2022/07/10 10:17:46;;;;;;;2.00;1.80;;;28.10;56.80;;;;;;6192139;28;20225;-66
2022/07/10 10:20:53;;;;;;;1.70;1.60;;;28.20;56.90;;;;;;6200796;28;20225;-66
2022/07/10 10:23:56;;;;;;;2.60;2.40;;;28.20;56.80;;;;;;6186366;28;20217;-65
2022/07/10 10:27:00;;;;;;;2.80;2.50;;;28.00;56.90;;;;;;6197993;28;20236;-65
2022/07/10 10:30:04;;;;;;;2.90;2.33;;;27.70;57.10;;;;;;6192672;28;20233;-65
2022/07/10 10:33:42;;;;;;;1.77;1.67;;;27.50;57.60;;;;;;6207701;28;20552;-65
2022/07/10 10:36:48;;;;;;;1.80;1.70;;;27.30;56.20;;;;;;6177210;28;20222;-66
2022/07/10 10:39:55;;;;;;;2.17;1.70;;;27.20;57.90;;;;;;6190060;28;20229;-65
2022/07/10 10:43:19;;;;;;;1.93;1.83;;;27.20;58.20;;;;;;6186477;28;20233;-65
2022/07/10 10:46:26;;;;;;;2.20;2.00;;;27.10;57.80;;;;;;6195595;28;20230;-66
2022/07/10 10:49:53;;;;;;;2.27;2.17;;;26.90;57.70;;;;;;6180821;28;20257;-66
2022/07/10 10:53:03;;;;;;;2.27;1.80;;;26.60;57.70;;;;;;6185277;28;20368;-66
2022/07/10 10:56:34;;;;;;;2.10;2.00;;;26.00;58.60;;;;;;6195159;28;20225;-64
2022/07/10 10:59:47;;;;;;;2.50;2.27;;;25.60;59.80;;;;;;6178150;28;20305;-64
2022/07/10 11:03:13;;;;;;;2.50;2.27;;;25.50;61.10;;;;;;6182258;28;20873;-66
2022/07/10 11:06:39;;;;;;;2.10;2.00;;;25.50;62.40;;;;;;6185171;28;20233;-65
2022/07/10 11:09:45;;;;;;;1.90;1.80;;;25.50;64.10;;;;;;6180776;28;20566;-65
2022/07/10 11:13:01;;;;;;;2.30;2.00;;;25.80;64.90;;;;;;6184904;28;20237;-65
2022/07/10 11:16:13;;;;;;;3.60;2.10;;;26.30;59.50;;;;;;6194440;28;20226;-65
2022/07/10 11:19:28;;;;;;;1.87;1.77;;;26.70;57.80;;;;;;6198217;28;20269;-68
2022/07/10 11:22:48;;;;;;;2.57;2.20;;;26.80;54.20;;;;;;6195003;28;20379;-67
2022/07/10 11:26:01;;;;;;;2.30;2.10;;;27.00;55.40;;;;;;6196704;28;20229;-67
2022/07/10 11:29:06;;;;;;;3.00;2.20;;;26.90;53.00;;;;;;6180586;28;20229;-66
2022/07/10 11:32:09;;;;;;;2.30;2.10;;;27.10;51.00;;;;;;6190280;28;20237;-66
2022/07/10 11:35:13;;;;;;;2.93;2.30;;;27.30;50.00;;;;;;6201267;28;20221;-66
2022/07/10 11:38:23;;;;;;;2.10;1.90;;;27.60;50.50;;;;;;6199804;28;20240;-67
2022/07/10 11:41:28;;;;;;;2.57;2.37;;;27.80;48.70;;;;;;6200722;28;20198;-65
2022/07/10 11:44:32;;;;;;;12.10;10.90;;;27.80;47.30;;;;;;6184723;28;20303;-67
2022/07/10 11:47:39;;;;;;;2.37;2.00;;;27.80;46.30;;;;;;6179821;28;22889;-65
2022/07/10 11:50:42;;;;;;;2.30;2.10;;;27.80;45.80;;;;;;6184248;28;20229;-69
2022/07/10 11:53:58;;;;;;;1.70;1.60;;;27.90;48.10;;;;;;6197750;28;20233;-68
2022/07/10 11:57:08;;;;;;;3.57;1.90;;;28.00;46.90;;;;;;6185907;28;20257;-67
2022/07/10 12:00:23;;;;;;;2.10;1.90;;;28.10;46.40;;;;;;6191213;28;20229;-66
2022/07/10 12:03:26;;;;;;;2.03;1.90;;;28.30;46.30;;;;;;6203681;28;20680;-66
2022/07/10 12:06:33;;;;;;;1.70;1.60;;;28.50;45.70;;;;;;6199385;28;20237;-66
2022/07/10 12:09:38;;;;;;;2.13;1.93;;;28.60;44.60;;;;;;6193056;28;20243;-66
2022/07/10 12:12:43;;;;;;;1.70;1.60;;;28.60;45.00;;;;;;6198340;28;20225;-67
2022/07/10 12:15:47;;;;;;;1.97;1.60;;;28.40;44.80;;;;;;6202158;28;20225;-67
2022/07/10 12:18:50;;;;;;;3.13;1.77;;;28.00;45.80;;;;;;6196744;28;20244;-67
2022/07/10 12:21:54;;;;;;;2.40;1.60;;;27.70;46.70;;;;;;6185827;28;20283;-67
2022/07/10 12:25:00;;;;;;;2.07;1.97;;;27.30;45.90;;;;;;6182447;28;20257;-66
2022/07/10 12:28:05;;;;;;;2.37;2.17;;;27.10;46.80;;;;;;6210626;28;20228;-67
2022/07/10 12:31:08;;;;;;;2.67;2.10;;;26.80;46.50;;;;;;6212923;28;20636;-67
2022/07/10 12:34:13;;;;;;;2.00;1.90;;;26.40;47.40;;;;;;6203995;28;20568;-65
2022/07/10 12:37:16;;;;;;;2.00;1.90;;;26.20;49.30;;;;;;6203871;28;20271;-65
2022/07/10 12:40:32;;;;;;;2.20;2.07;;;26.10;50.50;;;;;;6204914;28;20240;-65
2022/07/10 12:43:37;;;;;;;2.47;2.27;;;26.30;50.40;;;;;;6204913;28;20229;-66
2022/07/10 12:46:41;;;;;;;2.00;1.80;;;26.60;49.50;;;;;;6204619;28;20229;-66
2022/07/10 12:49:55;;;;;;;1.93;1.83;;;26.70;49.40;;;;;;6195755;28;20241;-65
2022/07/10 12:53:11;;;;;;;2.10;2.00;;;26.70;48.30;;;;;;6204515;28;20263;-65
2022/07/10 12:56:31;;;;;;;2.10;1.97;;;26.80;48.90;;;;;;6203919;28;20573;-65
2022/07/10 12:59:36;;;;;;;1.73;1.40;;;27.00;48.80;;;;;;6204440;28;20241;-65
2022/07/10 13:02:40;;;;;;;1.80;1.70;;;27.30;48.10;;;;;;6203710;28;20228;-65
2022/07/10 13:05:44;;;;;;;1.53;1.43;;;27.60;47.90;;;;;;6204942;28;20240;-64
2022/07/10 13:08:47;;;;;;;2.00;1.87;;;27.60;47.40;;;;;;6214246;28;20225;-65
2022/07/10 13:11:51;;;;;;;1.57;1.43;;;27.40;47.00;;;;;;6213202;28;20233;-65
2022/07/10 13:14:56;;;;;;;1.67;1.57;;;27.10;47.20;;;;;;6210891;28;20307;-65
2022/07/10 13:17:59;;;;;;;1.87;1.67;;;27.00;47.10;;;;;;6229226;28;20228;-65
2022/07/10 13:21:03;;;;;;;1.90;1.80;;;26.60;47.20;;;;;;6228547;28;20682;-66
2022/07/10 13:24:07;;;;;;;1.97;1.77;;;26.20;48.10;;;;;;6228193;28;20224;-66
2022/07/10 13:27:10;;;;;;;2.10;1.53;;;26.10;49.10;;;;;;6228262;28;20224;-65
2022/07/10 13:30:15;;;;;;;1.60;1.50;;;26.00;49.40;;;;;;6227033;28;20236;-68
2022/07/10 13:33:19;;;;;;;2.10;1.90;;;26.00;49.60;;;;;;6224820;28;20228;-66
2022/07/10 13:36:22;;;;;;;2.50;2.30;;;25.90;49.60;;;;;;6225477;28;20305;-66
2022/07/10 13:39:25;;;;;;;1.80;1.70;;;25.70;49.30;;;;;;6227321;28;20234;-67
2022/07/10 13:42:28;;;;;;;1.90;1.80;;;25.70;49.90;;;;;;6227587;28;20236;-66
2022/07/10 13:45:42;;;;;;;1.60;1.50;;;25.50;50.50;;;;;;6228366;28;20662;-66
2022/07/10 13:48:46;;;;;;;1.97;1.87;;;25.40;50.90;;;;;;6227473;28;20316;-66
2022/07/10 13:51:49;;;;;;;2.07;1.87;;;25.40;51.10;;;;;;6222687;28;20236;-66
2022/07/10 13:54:52;;;;;;;1.73;1.60;;;25.40;51.40;;;;;;6226137;28;20728;-67
2022/07/10 13:57:56;;;;;;;1.70;1.60;;;25.30;51.00;;;;;;6226996;28;20231;-67
2022/07/10 14:01:00;;;;;;;2.37;2.23;;;25.30;50.40;;;;;;6227474;28;20231;-67
2022/07/10 14:04:04;;;;;;;2.10;1.90;;;25.40;51.10;;;;;;6226816;28;20327;-67
2022/07/10 14:07:07;;;;;;;2.13;1.93;;;25.50;51.00;;;;;;6227392;28;20311;-65
2022/07/10 14:10:11;;;;;;;1.70;1.60;;;25.50;51.70;;;;;;6226633;28;20307;-66
2022/07/10 14:13:14;;;;;;;1.93;1.53;;;25.60;50.20;;;;;;6226125;28;20617;-66
2022/07/10 14:16:19;;;;;;;2.43;1.83;;;25.50;50.30;;;;;;6225322;28;20224;-66
2022/07/10 14:19:22;;;;;;;1.77;1.50;;;25.50;49.90;;;;;;6226929;28;20311;-65
2022/07/10 14:22:25;;;;;;;2.10;2.00;;;25.20;50.40;;;;;;6226991;28;20234;-63
2022/07/10 14:25:29;;;;;;;2.70;1.90;;;25.10;52.80;;;;;;6227066;28;20240;-64
2022/07/10 14:28:34;;;;;;;1.60;1.50;;;25.00;51.70;;;;;;6208174;28;20237;-67
2022/07/10 14:31:39;;;;;;;1.90;1.80;;;25.00;52.10;;;;;;6201871;28;20233;-69
2022/07/10 14:34:42;;;;;;;1.83;1.60;;;25.10;51.70;;;;;;6202085;28;20239;-66
2022/07/10 14:37:45;;;;;;;1.80;1.70;;;25.10;51.70;;;;;;6222061;28;20642;-64
2022/07/10 14:40:52;;;;;;;2.03;1.90;;;25.10;50.90;;;;;;6226654;28;20236;-64
2022/07/10 14:43:56;;;;;;;2.17;2.00;;;24.80;50.20;;;;;;6226014;28;20235;-65
2022/07/10 14:47:00;;;;;;;1.73;1.63;;;24.60;50.30;;;;;;6226300;28;20235;-65
2022/07/10 14:50:04;;;;;;;1.70;1.60;;;24.50;50.50;;;;;;6226226;28;20243;-65
2022/07/10 14:53:08;;;;;;;1.63;1.53;;;24.50;50.80;;;;;;6226718;28;20682;-65
2022/07/10 14:56:11;;;;;;;1.50;1.40;;;24.60;50.90;;;;;;6226340;28;20255;-66
2022/07/10 14:59:15;;;;;;;1.87;1.70;;;24.90;50.90;;;;;;6225898;28;20569;-64
2022/07/10 15:02:19;;;;;;;3.37;2.57;;;25.00;50.50;;;;;;6226154;28;20196;-64
2022/07/10 15:05:23;;;;;;;1.60;1.50;;;25.20;51.60;;;;;;6226350;28;20292;-63
2022/07/10 15:08:26;;;;;;;1.83;1.73;;;25.30;50.40;;;;;;6225528;28;20243;-64
2022/07/10 15:11:30;;;;;;;2.00;1.90;;;25.30;50.70;;;;;;6226060;28;20540;-64
2022/07/10 15:14:33;;;;;;;1.63;1.50;;;25.20;48.60;;;;;;6226098;28;20208;-64
2022/07/10 15:17:37;;;;;;;1.90;1.80;;;25.00;48.90;;;;;;6225359;28;20212;-64
2022/07/10 15:20:41;;;;;;;1.73;1.63;;;24.90;49.00;;;;;;6225629;28;20228;-64
2022/07/10 15:23:44;;;;;;;1.60;1.40;;;24.80;48.90;;;;;;6225275;28;20659;-64
2022/07/10 15:26:47;;;;;;;2.17;1.87;;;24.80;48.90;;;;;;6220831;28;20551;-64
2022/07/10 15:29:53;;;;;;;2.27;1.90;;;24.70;48.80;;;;;;6201448;28;20241;-65
2022/07/10 15:32:57;;;;;;;1.53;1.43;;;24.80;49.40;;;;;;6201455;28;20244;-64
2022/07/10 15:36:01;;;;;;;2.00;1.80;;;24.80;48.90;;;;;;6207366;28;20266;-64
2022/07/10 15:39:04;;;;;;;2.30;2.10;;;24.80;48.90;;;;;;6225614;28;20228;-65
2022/07/10 15:42:07;;;;;;;1.60;1.50;;;24.80;48.90;;;;;;6225324;28;20239;-64
2022/07/10 15:45:11;;;;;;;2.03;1.40;;;24.90;49.30;;;;;;6225532;28;20220;-64
2022/07/10 15:48:18;;;;;;;1.90;1.80;;;25.00;49.50;;;;;;6225239;28;20232;-64
2022/07/10 15:51:21;;;;;;;2.13;1.90;;;25.00;48.90;;;;;;6225760;28;20254;-64
2022/07/10 15:54:24;;;;;;;1.70;1.60;;;25.00;49.50;;;;;;6225548;28;20252;-64
2022/07/10 15:57:27;;;;;;;2.50;2.00;;;25.00;49.00;;;;;;6225575;28;20232;-64
2022/07/10 16:00:31;;;;;;;1.53;1.43;;;25.00;49.00;;;;;;6215790;28;20236;-64
2022/07/10 16:03:35;;;;;;;3.93;1.70;;;25.10;49.40;;;;;;6225547;28;20308;-64
2022/07/10 16:06:38;;;;;;;1.83;1.73;;;25.10;49.10;;;;;;6225179;28;20577;-64
2022/07/10 16:09:41;;;;;;;1.97;1.87;;;25.20;49.80;;;;;;6224557;28;20236;-65
2022/07/10 16:12:45;;;;;;;2.53;1.70;;;25.20;48.80;;;;;;6224478;28;20743;-64